createdAt,value
2023-04-14T00:01:36.869Z,98607.97
2023-04-14T00:04:38.886Z,98600.41
2023-04-14T00:07:40.892Z,98586.25
2023-04-14T00:10:44.112Z,98583.41
2023-04-14T00:13:46.013Z,98574.66
2023-04-14T00:16:48.045Z,98562.25
2023-04-14T00:19:50.025Z,98552.19
2023-04-14T00:22:51.912Z,98551.72
2023-04-14T00:25:55.174Z,98562.50
2023-04-14T00:28:56.973Z,98548.00
2023-04-14T00:31:59.658Z,98558.44
2023-04-14T00:35:03.544Z,98555.56
2023-04-14T00:38:05.672Z,98555.66
2023-04-14T00:41:08.801Z,98512.84
2023-04-14T00:44:10.873Z,98555.50
2023-04-14T00:47:12.646Z,98561.59
2023-04-14T00:50:15.614Z,98552.81
2023-04-14T00:53:17.492Z,98543.22
2023-04-14T00:56:20.787Z,98550.34
2023-04-14T00:59:22.834Z,98547.56
2023-04-14T01:02:25.510Z,98543.41
2023-04-14T01:05:27.553Z,98541.31
2023-04-14T01:08:29.968Z,98538.66
2023-04-14T01:11:42.261Z,98508.91
2023-04-14T01:14:51.062Z,98522.34
2023-04-14T01:18:10.427Z,98514.59
2023-04-14T01:21:17.793Z,98503.72
2023-04-14T01:24:41.019Z,98517.50
2023-04-14T01:27:57.273Z,98499.91
2023-04-14T01:31:24.713Z,98481.63
2023-04-14T01:34:34.063Z,98480.03
2023-04-14T01:37:41.334Z,98474.94
2023-04-14T01:40:50.340Z,98458.56
2023-04-14T01:43:56.215Z,98453.03
2023-04-14T01:47:04.480Z,98439.50
2023-04-14T01:50:09.463Z,98442.41
2023-04-14T01:53:13.394Z,98429.53
2023-04-14T01:56:18.155Z,98439.63
2023-04-14T01:59:22.764Z,98455.41
2023-04-14T02:02:27.747Z,98427.78
2023-04-14T02:05:32.136Z,98454.47
2023-04-14T02:08:36.505Z,98452.13
2023-04-14T02:11:39.688Z,98444.16
2023-04-14T02:14:42.728Z,98435.34
2023-04-14T02:17:48.460Z,98416.75
2023-04-14T02:20:52.746Z,98426.84
2023-04-14T02:23:55.473Z,98414.00
2023-04-14T02:27:09.012Z,98415.53
2023-04-14T02:30:14.814Z,98409.25
2023-04-14T02:33:27.366Z,98421.28
2023-04-14T02:36:33.150Z,98428.00
2023-04-14T02:39:41.892Z,98435.31
2023-04-14T02:42:48.268Z,98439.41
2023-04-14T02:45:53.322Z,98432.34
2023-04-14T02:48:59.154Z,98431.00
2023-04-14T02:52:03.228Z,98426.88
2023-04-14T02:55:06.394Z,98403.50
2023-04-14T02:58:08.858Z,98411.34
2023-04-14T03:01:11.608Z,98394.59
2023-04-14T03:04:16.865Z,98392.59
2023-04-14T03:07:21.272Z,98414.09
2023-04-14T03:10:24.718Z,98414.16
2023-04-14T03:13:28.872Z,98407.69
2023-04-14T03:16:32.119Z,98403.44
2023-04-14T03:19:37.997Z,98389.00
2023-04-14T03:22:40.969Z,98389.88
2023-04-14T03:25:43.129Z,98369.66
2023-04-14T03:28:48.397Z,98378.16
2023-04-14T03:31:52.014Z,98359.53
2023-04-14T03:34:59.191Z,98370.00
2023-04-14T03:38:02.721Z,98357.28
2023-04-14T03:41:07.541Z,98357.00
2023-04-14T03:44:15.857Z,98323.13
2023-04-14T03:47:18.790Z,98341.00
2023-04-14T03:50:23.755Z,98322.72
2023-04-14T03:53:26.664Z,98341.16
2023-04-14T03:56:31.291Z,98384.72
2023-04-14T03:59:35.367Z,98438.44
2023-04-14T04:02:38.449Z,98431.75
2023-04-14T04:05:43.252Z,98412.97
2023-04-14T04:08:47.937Z,98388.66
2023-04-14T04:11:51.138Z,98402.69
2023-04-14T04:14:53.040Z,98393.81
2023-04-14T04:17:56.299Z,98403.75
2023-04-14T04:21:01.426Z,98391.03
2023-04-14T04:24:06.358Z,98400.56
2023-04-14T04:27:20.295Z,98408.38
2023-04-14T04:30:31.216Z,98401.03
2023-04-14T04:33:34.422Z,98398.91
2023-04-14T04:36:40.291Z,98381.78
2023-04-14T04:39:42.083Z,98366.47
2023-04-14T04:42:44.294Z,98361.03
2023-04-14T04:45:56.220Z,98376.25
2023-04-14T04:48:59.410Z,98370.78
2023-04-14T04:52:02.795Z,98370.38
2023-04-14T04:55:05.740Z,98375.63
2023-04-14T04:58:07.572Z,98372.56
2023-04-14T05:01:10.061Z,98385.59
2023-04-14T05:04:13.036Z,98376.56
2023-04-14T05:07:16.249Z,98386.81
2023-04-14T05:10:19.038Z,98408.88
2023-04-14T05:13:22.630Z,98418.94
2023-04-14T05:16:25.697Z,98411.56
2023-04-14T05:19:27.583Z,98417.03
2023-04-14T05:22:31.967Z,98418.28
2023-04-14T05:25:34.028Z,98410.09
2023-04-14T05:28:36.566Z,98409.47
2023-04-14T05:31:39.059Z,98402.09
2023-04-14T05:34:41.072Z,98382.66
2023-04-14T05:37:44.293Z,98399.19
2023-04-14T05:40:47.746Z,98403.28
2023-04-14T05:43:49.644Z,98396.13
2023-04-14T05:46:52.543Z,98394.69
2023-04-14T05:49:54.416Z,98396.53
2023-04-14T05:52:57.569Z,98404.09
2023-04-14T05:55:59.373Z,98408.22
2023-04-14T05:59:01.905Z,98403.75
2023-04-14T06:02:07.287Z,98346.88
2023-04-14T06:05:10.428Z,98335.47
2023-04-14T06:08:13.820Z,98318.56
2023-04-14T06:11:16.896Z,98317.59
2023-04-14T06:14:18.748Z,98326.97
2023-04-14T06:17:21.221Z,98330.44
2023-04-14T06:20:23.131Z,98339.06
2023-04-14T06:23:27.241Z,98328.31
2023-04-14T06:26:29.138Z,98308.28
2023-04-14T06:29:31.633Z,98324.44
2023-04-14T06:32:33.910Z,98381.69
2023-04-14T06:35:36.100Z,98384.56
2023-04-14T06:38:40.432Z,98371.81
2023-04-14T06:41:42.464Z,98349.16
2023-04-14T06:44:44.329Z,98379.63
2023-04-14T06:47:46.783Z,98369.06
2023-04-14T06:50:54.473Z,98367.22
2023-04-14T06:53:57.938Z,98349.81
2023-04-14T06:57:01.017Z,98353.31
2023-04-14T07:00:04.403Z,98365.38
2023-04-14T07:03:06.623Z,98343.75
2023-04-14T07:06:11.881Z,98347.63
2023-04-14T07:09:16.048Z,98348.84
2023-04-14T07:12:18.059Z,98351.78
2023-04-14T07:15:20.057Z,98342.94
2023-04-14T07:18:22.144Z,98318.78
2023-04-14T07:21:24.791Z,98333.75
2023-04-14T07:24:27.913Z,98328.50
2023-04-14T07:27:32.014Z,98308.88
2023-04-14T07:30:33.886Z,98325.88
2023-04-14T07:33:36.750Z,98339.53
2023-04-14T07:36:38.555Z,98332.44
2023-04-14T07:39:41.930Z,98321.63
2023-04-14T07:42:44.729Z,98318.22
2023-04-14T07:45:46.590Z,98313.72
2023-04-14T07:48:48.643Z,98306.56
2023-04-14T07:51:51.041Z,98314.75
2023-04-14T07:54:54.228Z,98322.91
2023-04-14T07:57:56.613Z,98324.53
2023-04-14T08:00:58.492Z,98320.44
2023-04-14T08:04:00.768Z,98318.38
2023-04-14T08:07:02.998Z,98306.28
2023-04-14T08:10:07.941Z,98319.19
2023-04-14T08:13:10.085Z,98331.84
2023-04-14T08:16:12.200Z,98337.75
2023-04-14T08:19:14.567Z,98328.97
2023-04-14T08:22:16.692Z,98329.88
2023-04-14T08:25:19.919Z,98317.22
2023-04-14T08:28:21.963Z,98325.41
2023-04-14T08:31:25.835Z,98316.00
2023-04-14T08:34:28.754Z,98311.69
2023-04-14T08:37:30.817Z,98302.91
2023-04-14T08:40:38.477Z,98304.13
2023-04-14T08:43:40.586Z,98331.09
2023-04-14T08:46:44.094Z,98317.38
2023-04-14T08:49:51.764Z,98328.81
2023-04-14T08:52:56.114Z,98304.94
2023-04-14T08:56:02.378Z,98335.78
2023-04-14T08:59:04.718Z,98328.56
2023-04-14T09:02:09.157Z,98351.38
2023-04-14T09:05:11.934Z,98331.88
2023-04-14T09:08:15.703Z,98346.59
2023-04-14T09:11:19.351Z,98333.22
2023-04-14T09:14:22.209Z,98340.00
2023-04-14T09:17:26.692Z,98350.94
2023-04-14T09:20:34.614Z,98327.94
2023-04-14T09:23:41.920Z,98365.38
2023-04-14T09:26:45.095Z,98375.13
2023-04-14T09:29:48.643Z,98376.31
2023-04-14T09:32:52.274Z,98368.28
2023-04-14T09:35:55.270Z,98346.28
2023-04-14T09:38:57.340Z,98364.69
2023-04-14T09:42:01.744Z,98364.50
2023-04-14T09:45:05.702Z,98359.59
2023-04-14T09:48:08.424Z,98365.31
2023-04-14T09:51:11.687Z,98384.56
2023-04-14T09:54:23.509Z,98323.72
2023-04-14T09:57:28.827Z,98366.41
2023-04-14T10:00:32.301Z,98350.09
2023-04-14T10:03:36.114Z,98337.91
2023-04-14T10:06:40.985Z,98339.34
2023-04-14T10:09:42.972Z,98348.50
2023-04-14T10:12:46.599Z,98352.59
2023-04-14T10:15:48.481Z,98356.75
2023-04-14T10:18:50.645Z,98363.00
2023-04-14T10:21:54.395Z,98355.25
2023-04-14T10:24:58.782Z,98353.00
2023-04-14T10:28:03.001Z,98351.38
2023-04-14T10:31:06.455Z,98352.91
2023-04-14T10:34:11.205Z,98345.97
2023-04-14T10:37:14.144Z,98331.56
2023-04-14T10:40:16.001Z,98365.09
2023-04-14T10:43:19.361Z,98363.56
2023-04-14T10:46:21.975Z,98353.47
2023-04-14T10:49:29.094Z,98360.41
2023-04-14T10:52:33.976Z,98369.38
2023-04-14T10:55:52.126Z,98360.56
2023-04-14T10:58:57.128Z,98336.22
2023-04-14T11:01:59.061Z,98341.50
2023-04-14T11:05:08.671Z,98355.03
2023-04-14T11:08:14.855Z,98348.06
2023-04-14T11:11:17.177Z,98344.78
2023-04-14T11:14:26.155Z,98348.06
2023-04-14T11:17:30.433Z,98315.00
2023-04-14T11:20:33.181Z,98311.97
2023-04-14T11:23:36.408Z,98319.94
2023-04-14T11:26:40.673Z,98321.91
2023-04-14T11:29:47.409Z,98321.50
2023-04-14T11:32:51.691Z,98310.75
2023-04-14T11:35:54.005Z,98322.59
2023-04-14T11:38:55.879Z,98325.28
2023-04-14T11:42:00.625Z,98305.47
2023-04-14T11:45:05.305Z,98317.00
2023-04-14T11:48:08.962Z,98320.47
2023-04-14T11:51:10.734Z,98301.03
2023-04-14T11:54:13.234Z,98294.31
2023-04-14T11:57:18.717Z,98317.44
2023-04-14T12:00:22.891Z,98308.47
2023-04-14T12:03:27.959Z,98308.91
2023-04-14T12:06:35.959Z,98305.22
2023-04-14T12:09:41.719Z,98300.94
2023-04-14T12:12:43.760Z,98299.50
2023-04-14T12:15:47.787Z,98302.94
2023-04-14T12:18:49.938Z,98300.63
2023-04-14T12:21:53.213Z,98301.88
2023-04-14T12:24:57.071Z,98301.44
2023-04-14T12:27:59.100Z,98293.88
2023-04-14T12:31:04.212Z,98289.59
2023-04-14T12:34:06.641Z,98284.19
2023-04-14T12:37:09.865Z,98281.31
2023-04-14T12:40:12.556Z,98286.03
2023-04-14T12:43:16.330Z,98294.66
2023-04-14T12:46:31.325Z,98273.25
2023-04-14T12:49:36.184Z,98306.78
2023-04-14T12:52:39.733Z,98314.00
2023-04-14T12:55:42.780Z,98309.56
2023-04-14T12:58:48.574Z,98322.81
2023-04-14T13:01:52.249Z,98319.19
2023-04-14T13:04:54.108Z,98327.72
2023-04-14T13:07:57.338Z,98317.03
2023-04-14T13:10:59.671Z,98337.47
2023-04-14T13:14:01.837Z,98346.03
2023-04-14T13:17:05.200Z,98325.31
2023-04-14T13:20:09.505Z,98344.81
2023-04-14T13:23:11.523Z,98333.22
2023-04-14T13:26:13.910Z,98346.00
2023-04-14T13:29:15.930Z,98331.41
2023-04-14T13:32:19.355Z,98345.38
2023-04-14T13:35:21.776Z,98347.53
2023-04-14T13:38:23.649Z,98349.16
2023-04-14T13:41:26.352Z,98359.41
2023-04-14T13:44:28.936Z,98377.28
2023-04-14T13:47:32.362Z,98361.50
2023-04-14T13:50:34.768Z,98375.56
2023-04-14T13:53:36.597Z,98362.53
2023-04-14T13:56:45.110Z,98367.44
2023-04-14T13:59:46.940Z,98366.25
2023-04-14T14:02:52.271Z,98362.59
2023-04-14T14:05:54.201Z,98388.03
2023-04-14T14:09:04.930Z,98358.41
2023-04-14T14:12:11.525Z,98371.91
2023-04-14T14:15:13.562Z,98344.47
2023-04-14T14:18:17.753Z,98391.63
2023-04-14T14:21:19.536Z,98377.47
2023-04-14T14:24:21.372Z,98377.84
2023-04-14T14:27:23.605Z,98392.97
2023-04-14T14:30:25.760Z,98393.78
2023-04-14T14:33:29.024Z,98393.25
2023-04-14T14:36:30.915Z,98374.38
2023-04-14T14:39:32.730Z,98409.84
2023-04-14T14:42:34.710Z,98425.34
2023-04-14T14:45:36.621Z,98423.22
2023-04-14T14:48:40.954Z,98416.22
2023-04-14T14:51:43.121Z,98419.28
2023-04-14T14:54:44.869Z,98400.94
2023-04-14T14:57:47.514Z,98416.00
2023-04-14T15:00:49.582Z,98433.75
2023-04-14T15:03:54.483Z,98421.91
2023-04-14T15:06:56.402Z,98445.97
2023-04-14T15:09:58.212Z,98410.94
2023-04-14T15:13:01.276Z,98447.47
2023-04-14T15:16:03.090Z,98447.34
2023-04-14T15:19:06.895Z,98458.03
2023-04-14T15:22:08.660Z,98456.97
2023-04-14T15:25:11.810Z,98477.06
2023-04-14T15:28:14.499Z,98478.06
2023-04-14T15:31:16.660Z,98485.16
2023-04-14T15:34:20.136Z,98478.06
2023-04-14T15:37:22.055Z,98471.47
2023-04-14T15:40:24.429Z,98482.03
2023-04-14T15:43:27.838Z,98454.56
2023-04-14T15:46:30.541Z,98477.00
2023-04-14T15:49:34.026Z,98490.00
2023-04-14T15:52:36.417Z,98486.59
2023-04-14T15:55:38.427Z,98493.44
2023-04-14T15:58:40.637Z,98504.66
2023-04-14T16:01:42.601Z,98512.78
2023-04-14T16:04:47.150Z,98517.59
2023-04-14T16:07:49.028Z,98504.97
2023-04-14T16:10:51.374Z,98527.34
2023-04-14T16:13:53.302Z,98518.09
2023-04-14T16:16:57.816Z,98521.59
2023-04-14T16:20:02.089Z,98527.25
2023-04-14T16:23:04.357Z,98522.31
2023-04-14T16:26:06.173Z,98525.13
2023-04-14T16:29:08.486Z,98535.50
2023-04-14T16:32:10.644Z,98542.78
2023-04-14T16:35:14.889Z,98534.06
2023-04-14T16:38:17.120Z,98528.94
2023-04-14T16:41:19.331Z,98540.81
2023-04-14T16:44:21.672Z,98548.91
2023-04-14T16:47:24.729Z,98546.28
2023-04-14T16:50:29.383Z,98528.19
2023-04-14T16:53:32.409Z,98579.56
2023-04-14T16:56:37.487Z,98575.31
2023-04-14T16:59:41.149Z,98571.66
2023-04-14T17:02:43.916Z,98582.88
2023-04-14T17:05:48.700Z,98586.50
2023-04-14T17:08:50.865Z,98601.97
2023-04-14T17:11:55.070Z,98593.41
2023-04-14T17:14:57.379Z,98594.41
2023-04-14T17:18:00.906Z,98607.09
2023-04-14T17:21:06.249Z,98616.47
2023-04-14T17:24:08.869Z,98614.16
2023-04-14T17:27:12.270Z,98597.34
2023-04-14T17:30:14.850Z,98586.00
2023-04-14T17:33:17.986Z,98606.59
2023-04-14T17:36:22.477Z,98615.97
2023-04-14T17:39:27.559Z,98619.44
2023-04-14T17:42:33.503Z,98619.75
2023-04-14T17:45:40.407Z,98624.22
2023-04-14T17:48:44.038Z,98627.84
2023-04-14T17:52:07.942Z,98644.31
2023-04-14T17:55:10.980Z,98654.19
2023-04-14T17:58:13.344Z,98654.97
2023-04-14T18:01:15.465Z,98666.16
2023-04-14T18:04:17.992Z,98685.09
2023-04-14T18:07:21.748Z,98683.59
2023-04-14T18:10:26.360Z,98683.56
2023-04-14T18:13:30.356Z,98691.09
2023-04-14T18:16:33.179Z,98688.41
2023-04-14T18:19:36.436Z,98713.63
2023-04-14T18:22:45.700Z,98719.72
2023-04-14T18:28:53.948Z,98737.53
2023-04-14T18:31:58.752Z,98733.66
2023-04-14T18:35:01.824Z,98735.84
2023-04-14T18:38:08.068Z,98736.75
2023-04-14T18:41:10.813Z,98745.81
2023-04-14T18:44:15.565Z,98751.59
2023-04-14T18:47:19.525Z,98744.78
2023-04-14T18:50:22.733Z,98739.81
2023-04-14T18:53:27.567Z,98741.47
2023-04-14T18:56:30.401Z,98753.03
2023-04-14T18:59:33.189Z,98743.31
2023-04-14T19:02:38.259Z,98745.78
2023-04-14T19:05:42.256Z,98747.66
2023-04-14T19:08:45.877Z,98754.81
2023-04-14T19:11:49.200Z,98723.13
2023-04-14T19:14:53.697Z,98763.50
2023-04-14T19:17:58.372Z,98763.66
2023-04-14T19:21:02.582Z,98759.50
2023-04-14T19:24:08.715Z,98772.88
2023-04-14T19:27:12.591Z,98766.97
2023-04-14T19:30:15.552Z,98771.28
2023-04-14T19:33:18.216Z,98781.53
2023-04-14T19:36:21.116Z,98786.25
2023-04-14T19:39:26.169Z,98811.53
2023-04-14T19:42:31.949Z,98803.28
2023-04-14T19:45:36.201Z,98824.16
2023-04-14T19:48:39.430Z,98830.47
2023-04-14T19:51:42.129Z,98814.53
2023-04-14T19:54:46.537Z,98821.31
2023-04-14T19:57:49.078Z,98813.06
2023-04-14T20:00:54.152Z,98824.78
2023-04-14T20:04:05.481Z,98839.59
2023-04-14T20:07:14.015Z,98846.28
2023-04-14T20:10:27.288Z,98851.34
2023-04-14T20:13:32.557Z,98847.59
2023-04-14T20:16:35.306Z,98832.91
2023-04-14T20:19:38.182Z,98847.97
2023-04-14T20:22:41.116Z,98845.06
2023-04-14T20:25:47.063Z,98846.00
2023-04-14T20:28:50.884Z,98838.72
2023-04-14T20:31:54.065Z,98852.59
2023-04-14T20:34:57.503Z,98835.25
2023-04-14T20:37:59.789Z,98839.50
2023-04-14T20:41:04.027Z,98841.56
2023-04-14T20:44:06.802Z,98815.16
2023-04-14T20:47:09.557Z,98841.06
2023-04-14T20:50:12.390Z,98862.19
2023-04-14T20:53:15.438Z,98856.88
2023-04-14T20:56:19.565Z,98875.78
2023-04-14T20:59:22.410Z,98847.97
2023-04-14T21:02:24.692Z,98884.00
2023-04-14T21:05:26.878Z,98881.50
2023-04-14T21:08:29.867Z,98880.22
2023-04-14T21:11:33.908Z,98885.69
2023-04-14T21:15:42.230Z,98880.44
2023-04-14T21:17:58.972Z,98882.81
2023-04-14T21:21:00.926Z,98878.69
2023-04-14T21:24:03.969Z,98881.34
2023-04-14T21:27:07.284Z,98861.63
2023-04-14T21:30:09.758Z,98847.84
2023-04-14T21:33:11.831Z,98853.88
2023-04-14T21:36:14.654Z,98862.44
2023-04-14T21:39:17.570Z,98868.50
2023-04-14T21:42:21.033Z,98884.84
2023-04-14T21:45:22.879Z,98892.47
2023-04-14T21:48:25.588Z,98892.59
2023-04-14T21:51:27.657Z,98903.66
2023-04-14T21:54:31.682Z,98896.91
2023-04-14T21:57:48.151Z,98889.84
2023-04-14T22:00:51.378Z,98907.75
2023-04-14T22:03:56.103Z,98902.03
2023-04-14T22:06:58.097Z,98911.09
2023-04-14T22:10:00.926Z,98911.66
2023-04-14T22:13:04.064Z,98923.88
2023-04-14T22:16:07.628Z,98914.53
2023-04-14T22:19:10.425Z,98917.81
2023-04-14T22:22:12.464Z,98908.19
2023-04-14T22:25:14.387Z,98913.44
2023-04-14T22:28:17.634Z,98917.84
2023-04-14T22:31:19.890Z,98906.31
2023-04-14T22:34:22.525Z,98908.91
2023-04-14T22:37:24.370Z,98911.91
2023-04-14T22:40:26.221Z,98896.41
2023-04-14T22:43:30.016Z,98910.91
2023-04-14T22:46:31.815Z,98903.63
2023-04-14T22:49:33.687Z,98909.13
2023-04-14T22:52:36.478Z,98908.97
2023-04-14T22:55:38.354Z,98918.16
2023-04-14T22:58:41.784Z,98907.41
2023-04-14T23:01:43.646Z,98930.69
2023-04-14T23:04:46.389Z,98929.72
2023-04-14T23:07:48.704Z,98927.34
2023-04-14T23:10:51.715Z,98917.28
2023-04-14T23:13:54.986Z,98922.22
2023-04-14T23:16:56.975Z,98894.03
2023-04-14T23:19:58.964Z,98930.03
2023-04-14T23:23:01.685Z,98909.88
2023-04-14T23:26:03.578Z,98931.38
2023-04-14T23:29:06.738Z,98924.63
2023-04-14T23:32:09.623Z,98921.75
2023-04-14T23:35:11.417Z,98929.22
2023-04-14T23:38:14.012Z,98935.91
2023-04-14T23:41:15.835Z,98933.25
2023-04-14T23:44:19.537Z,98943.16
2023-04-14T23:47:22.338Z,98940.06
2023-04-14T23:51:00.376Z,98925.72
2023-04-14T23:53:48.146Z,98941.94
2023-04-14T23:56:49.981Z,98950.75
2023-04-14T23:59:53.077Z,98948.59
